createdAt,value
2023-01-28T00:00:54.179Z,91.04
2023-01-28T00:03:22.228Z,90.68
2023-01-28T00:05:50.370Z,90.87
2023-01-28T00:08:18.403Z,90.68
2023-01-28T00:10:48.208Z,90.36
2023-01-28T00:13:16.181Z,90.79
2023-01-28T00:15:44.507Z,90.25
2023-01-28T00:18:12.573Z,90.98
2023-01-28T00:20:40.429Z,90.82
2023-01-28T00:23:08.440Z,91.06
2023-01-28T00:25:36.525Z,91.33
2023-01-28T00:28:05.684Z,90.98
2023-01-28T00:30:33.639Z,91.18
2023-01-28T00:33:01.900Z,91.33
2023-01-28T00:35:30.027Z,90.71
2023-01-28T00:37:57.909Z,91.19
2023-01-28T00:40:28.763Z,91.12
2023-01-28T00:42:58.150Z,90.53
2023-01-28T00:45:27.387Z,91.61
2023-01-28T00:47:56.259Z,91.10
2023-01-28T00:50:24.177Z,91.92
2023-01-28T00:52:54.045Z,91.94
2023-01-28T00:55:22.160Z,91.78
2023-01-28T00:57:50.552Z,91.87
2023-01-28T01:00:21.094Z,91.51
2023-01-28T01:02:51.662Z,91.26
2023-01-28T01:05:19.978Z,91.41
2023-01-28T01:07:47.848Z,90.85
2023-01-28T01:10:19.457Z,91.69
2023-01-28T01:12:47.909Z,91.53
2023-01-28T01:15:17.113Z,91.78
2023-01-28T01:17:48.791Z,91.77
2023-01-28T01:20:20.757Z,92.17
2023-01-28T01:22:48.662Z,92.01
2023-01-28T01:25:18.675Z,92.62
2023-01-28T01:27:49.244Z,92.09
2023-01-28T01:30:18.047Z,92.45
2023-01-28T01:32:45.880Z,92.90
2023-01-28T01:35:14.106Z,93.79
2023-01-28T01:37:45.584Z,93.55
2023-01-28T01:40:14.040Z,93.93
2023-01-28T01:42:41.934Z,93.96
2023-01-28T01:45:15.102Z,94.47
2023-01-28T01:47:48.744Z,94.27
2023-01-28T01:50:25.499Z,94.59
2023-01-28T01:52:58.269Z,94.29
2023-01-28T01:55:32.197Z,94.97
2023-01-28T01:58:06.105Z,95.08
2023-01-28T02:00:34.040Z,95.69
2023-01-28T02:03:03.007Z,96.79
2023-01-28T02:05:31.192Z,96.28
2023-01-28T02:08:20.982Z,97.12
2023-01-28T02:10:51.732Z,97.64
2023-01-28T02:13:25.918Z,97.23
2023-01-28T02:15:54.923Z,97.08
2023-01-28T02:18:23.643Z,97.53
2023-01-28T02:21:28.902Z,97.37
2023-01-28T02:24:17.654Z,97.68
2023-01-28T02:27:11.383Z,96.88
2023-01-28T02:29:50.273Z,96.36
2023-01-28T02:32:25.303Z,96.58
2023-01-28T02:35:00.165Z,96.15
2023-01-28T02:37:34.151Z,95.84
2023-01-28T02:40:07.850Z,96.09
2023-01-28T02:42:38.750Z,97.06
2023-01-28T02:45:17.568Z,96.90
2023-01-28T02:48:00.110Z,97.16
2023-01-28T02:50:39.659Z,96.47
2023-01-28T02:53:37.070Z,97.66
2023-01-28T02:56:15.301Z,99.10
2023-01-28T02:58:48.967Z,99.88
2023-01-28T03:01:25.619Z,99.79
2023-01-28T03:04:01.335Z,100.00
2023-01-28T03:06:35.750Z,100.00
2023-01-28T03:09:26.970Z,100.00
2023-01-28T03:12:15.387Z,100.00
2023-01-28T03:15:04.626Z,100.00
2023-01-28T03:17:58.560Z,100.00
2023-01-28T03:20:47.618Z,100.00
2023-01-28T03:23:39.062Z,100.00
2023-01-28T03:26:27.418Z,100.00
2023-01-28T03:29:21.327Z,100.00
2023-01-28T03:32:09.408Z,99.96
2023-01-28T03:34:56.964Z,100.00
2023-01-28T03:37:26.883Z,100.00
2023-01-28T03:40:08.729Z,100.00
2023-01-28T03:42:36.861Z,100.00
2023-01-28T03:45:24.868Z,100.00
2023-01-28T03:47:53.073Z,100.00
2023-01-28T03:50:23.044Z,100.00
2023-01-28T03:53:14.926Z,100.00
2023-01-28T03:55:50.692Z,100.00
2023-01-28T03:58:19.338Z,100.00
2023-01-28T04:00:47.640Z,100.00
2023-01-28T04:03:18.071Z,100.00
2023-01-28T04:06:02.395Z,100.00
2023-01-28T04:08:54.521Z,100.00
2023-01-28T04:11:31.654Z,100.00
2023-01-28T04:14:02.519Z,100.00
2023-01-28T04:16:42.559Z,100.00
2023-01-28T04:19:12.289Z,100.00
2023-01-28T04:21:41.519Z,100.00
2023-01-28T04:24:10.028Z,100.00
2023-01-28T04:26:38.078Z,100.00
2023-01-28T04:29:06.983Z,100.00
2023-01-28T04:31:37.121Z,100.00
2023-01-28T04:34:37.470Z,100.00
2023-01-28T04:37:16.327Z,100.00
2023-01-28T04:40:03.240Z,100.00
2023-01-28T04:43:03.228Z,100.00
2023-01-28T04:45:48.153Z,100.00
2023-01-28T04:48:39.980Z,100.00
2023-01-28T04:51:34.925Z,100.00
2023-01-28T04:54:22.752Z,100.00
2023-01-28T04:56:51.020Z,100.00
2023-01-28T04:59:19.923Z,100.00
2023-01-28T05:01:47.965Z,100.00
2023-01-28T05:04:17.360Z,100.00
2023-01-28T05:06:45.366Z,100.00
2023-01-28T05:09:18.742Z,100.00
2023-01-28T05:11:47.942Z,100.00
2023-01-28T05:14:16.313Z,100.00
2023-01-28T05:16:51.949Z,100.00
2023-01-28T05:19:20.785Z,100.00
2023-01-28T05:21:48.955Z,100.00
2023-01-28T05:24:29.588Z,100.00
2023-01-28T05:26:59.109Z,100.00
2023-01-28T05:29:27.631Z,100.00
2023-01-28T05:31:55.675Z,100.00
2023-01-28T05:34:23.747Z,100.00
2023-01-28T05:36:52.493Z,100.00
2023-01-28T05:39:31.857Z,100.00
2023-01-28T05:42:01.380Z,100.00
2023-01-28T05:44:30.293Z,100.00
2023-01-28T05:47:19.766Z,100.00
2023-01-28T05:50:03.299Z,100.00
2023-01-28T05:53:06.881Z,100.00
2023-01-28T05:55:36.367Z,100.00
2023-01-28T05:58:06.269Z,100.00
2023-01-28T06:00:34.305Z,100.00
2023-01-28T06:03:04.321Z,100.00
2023-01-28T06:05:32.989Z,100.00
2023-01-28T06:08:02.254Z,100.00
2023-01-28T06:10:30.132Z,100.00
2023-01-28T06:12:58.324Z,100.00
2023-01-28T06:15:27.574Z,100.00
2023-01-28T06:18:13.828Z,100.00
2023-01-28T06:20:42.111Z,100.00
2023-01-28T06:23:09.889Z,100.00
2023-01-28T06:25:37.886Z,100.00
2023-01-28T06:28:10.864Z,99.93
2023-01-28T06:30:40.054Z,99.38
2023-01-28T06:33:07.950Z,99.52
2023-01-28T06:35:37.291Z,99.02
2023-01-28T06:38:06.602Z,98.63
2023-01-28T06:40:34.484Z,97.91
2023-01-28T06:43:02.375Z,98.82
2023-01-28T06:45:30.238Z,98.03
2023-01-28T06:47:59.491Z,97.96
2023-01-28T06:50:27.544Z,97.90
2023-01-28T06:52:55.385Z,97.61
2023-01-28T06:55:23.228Z,96.98
2023-01-28T06:57:51.328Z,96.64
2023-01-28T07:00:20.260Z,96.58
2023-01-28T07:02:49.124Z,96.74
2023-01-28T07:05:18.574Z,96.14
2023-01-28T07:07:46.565Z,96.16
2023-01-28T07:10:14.653Z,95.50
2023-01-28T07:12:45.154Z,95.99
2023-01-28T07:15:15.147Z,95.61
2023-01-28T07:17:43.826Z,95.94
2023-01-28T07:20:15.070Z,95.89
2023-01-28T07:22:45.626Z,95.24
2023-01-28T07:25:15.255Z,95.12
2023-01-28T07:27:48.909Z,95.02
2023-01-28T07:30:18.316Z,95.12
2023-01-28T07:32:46.486Z,95.01
2023-01-28T07:35:16.043Z,95.47
2023-01-28T07:37:52.816Z,95.45
2023-01-28T07:40:21.042Z,95.64
2023-01-28T07:42:48.864Z,95.17
2023-01-28T07:45:17.088Z,94.75
2023-01-28T07:47:44.919Z,95.44
2023-01-28T07:50:13.458Z,95.90
2023-01-28T07:52:44.670Z,96.02
2023-01-28T07:55:15.415Z,94.61
2023-01-28T07:57:50.603Z,94.17
2023-01-28T08:00:19.504Z,93.75
2023-01-28T08:02:48.878Z,94.28
2023-01-28T08:05:18.328Z,94.22
2023-01-28T08:07:48.312Z,94.26
2023-01-28T08:10:18.468Z,93.04
2023-01-28T08:12:53.741Z,93.05
2023-01-28T08:15:21.639Z,92.88
2023-01-28T08:17:49.427Z,92.39
2023-01-28T08:20:18.640Z,94.11
2023-01-28T08:22:46.560Z,93.28
2023-01-28T08:25:14.561Z,91.88
2023-01-28T08:27:43.788Z,92.30
2023-01-28T08:30:13.282Z,91.40
2023-01-28T08:32:41.491Z,92.70
2023-01-28T08:35:09.823Z,92.66
2023-01-28T08:37:37.603Z,92.77
2023-01-28T08:40:06.511Z,91.69
2023-01-28T08:42:34.649Z,91.84
2023-01-28T08:45:03.971Z,92.19
2023-01-28T08:47:31.991Z,90.34
2023-01-28T08:50:00.415Z,91.11
2023-01-28T08:52:31.256Z,91.18
2023-01-28T08:54:59.079Z,90.96
2023-01-28T08:57:26.944Z,91.18
2023-01-28T08:59:54.771Z,90.16
2023-01-28T09:02:31.600Z,90.46
2023-01-28T09:05:01.318Z,90.15
2023-01-28T09:07:29.270Z,89.45
2023-01-28T09:09:58.502Z,88.60
2023-01-28T09:12:27.112Z,88.82
2023-01-28T09:14:55.335Z,87.96
2023-01-28T09:17:25.086Z,87.45
2023-01-28T09:19:52.891Z,88.00
2023-01-28T09:22:20.780Z,89.02
2023-01-28T09:24:48.627Z,88.88
2023-01-28T09:27:18.027Z,86.33
2023-01-28T09:29:45.992Z,86.36
2023-01-28T09:32:13.809Z,86.33
2023-01-28T09:34:44.413Z,86.96
2023-01-28T09:37:12.426Z,85.82
2023-01-28T09:39:40.542Z,85.25
2023-01-28T09:42:27.547Z,84.62
2023-01-28T09:45:04.130Z,85.26
2023-01-28T09:47:35.143Z,84.93
2023-01-28T09:50:10.686Z,85.03
2023-01-28T09:52:41.992Z,83.95
2023-01-28T09:55:20.825Z,85.57
2023-01-28T09:57:53.415Z,85.08
2023-01-28T10:00:24.137Z,84.39
2023-01-28T10:03:09.345Z,83.09
2023-01-28T10:05:51.034Z,83.15
2023-01-28T10:08:31.879Z,83.26
2023-01-28T10:11:08.809Z,83.77
2023-01-28T10:13:49.467Z,82.48
2023-01-28T10:16:25.045Z,83.16
2023-01-28T10:18:58.015Z,82.84
2023-01-28T10:21:32.171Z,83.44
2023-01-28T10:24:04.843Z,82.46
2023-01-28T10:26:36.986Z,82.84
2023-01-28T10:29:12.503Z,81.82
2023-01-28T10:31:46.721Z,81.95
2023-01-28T10:34:16.930Z,81.10
2023-01-28T10:36:48.599Z,81.82
2023-01-28T10:39:17.939Z,81.33
2023-01-28T10:41:57.355Z,82.25
2023-01-28T10:44:33.636Z,80.60
2023-01-28T10:47:05.713Z,80.68
2023-01-28T10:49:39.970Z,80.32
2023-01-28T10:52:14.453Z,79.02
2023-01-28T10:54:42.352Z,79.00
2023-01-28T10:57:14.098Z,79.18
2023-01-28T10:59:42.929Z,78.90
2023-01-28T11:02:27.704Z,78.01
2023-01-28T11:05:08.434Z,77.94
2023-01-28T11:07:37.933Z,77.57
2023-01-28T11:10:26.395Z,77.55
2023-01-28T11:12:58.204Z,76.71
2023-01-28T11:15:26.927Z,76.32
2023-01-28T11:17:58.692Z,76.23
2023-01-28T11:20:29.471Z,76.21
2023-01-28T11:22:59.220Z,75.71
2023-01-28T11:25:32.070Z,74.69
2023-01-28T11:28:02.044Z,73.37
2023-01-28T11:30:33.976Z,74.40
2023-01-28T11:33:14.106Z,73.72
2023-01-28T11:35:42.060Z,72.52
2023-01-28T11:38:20.831Z,73.83
2023-01-28T11:40:53.076Z,74.30
2023-01-28T11:43:23.184Z,74.77
2023-01-28T11:45:59.088Z,73.43
2023-01-28T11:48:39.264Z,72.98
2023-01-28T11:51:23.646Z,72.09
2023-01-28T11:54:19.051Z,72.48
2023-01-28T11:56:56.735Z,71.00
2023-01-28T11:59:39.776Z,71.37
2023-01-28T12:02:23.736Z,72.49
2023-01-28T12:05:15.688Z,71.71
2023-01-28T12:07:50.538Z,71.60
2023-01-28T12:10:29.036Z,71.59
2023-01-28T12:13:12.707Z,71.57
2023-01-28T12:16:22.065Z,72.43
2023-01-28T12:19:31.542Z,71.86
2023-01-28T12:22:18.651Z,71.30
2023-01-28T12:25:08.487Z,71.12
2023-01-28T12:27:48.763Z,70.76
2023-01-28T12:30:26.046Z,71.63
2023-01-28T12:33:17.769Z,72.88
2023-01-28T12:36:02.548Z,70.84
2023-01-28T12:38:40.957Z,69.53
2023-01-28T12:41:14.009Z,70.99
2023-01-28T12:43:57.153Z,69.53
2023-01-28T12:46:34.182Z,69.28
2023-01-28T12:49:06.495Z,68.95
2023-01-28T12:51:44.953Z,69.39
2023-01-28T12:54:20.195Z,69.20
2023-01-28T12:56:53.251Z,69.30
2023-01-28T12:59:29.743Z,68.63
2023-01-28T13:02:18.522Z,69.54
2023-01-28T13:04:54.056Z,69.02
2023-01-28T13:07:27.227Z,69.68
2023-01-28T13:10:04.525Z,67.71
2023-01-28T13:12:33.373Z,69.05
2023-01-28T13:15:03.871Z,69.25
2023-01-28T13:17:33.713Z,67.85
2023-01-28T13:20:01.628Z,68.48
2023-01-28T13:22:32.926Z,68.94
2023-01-28T13:25:20.153Z,67.71
2023-01-28T13:27:57.064Z,67.24
2023-01-28T13:30:29.607Z,66.42
2023-01-28T13:33:03.155Z,66.33
2023-01-28T13:35:34.621Z,66.61
2023-01-28T13:38:10.815Z,65.74
2023-01-28T13:40:39.759Z,64.90
2023-01-28T13:43:28.991Z,64.58
2023-01-28T13:46:01.126Z,64.83
2023-01-28T13:48:34.021Z,64.53
2023-01-28T13:51:04.680Z,64.00
2023-01-28T13:53:42.616Z,64.25
2023-01-28T13:56:21.506Z,64.69
2023-01-28T13:59:16.756Z,63.60
2023-01-28T14:02:12.693Z,64.05
2023-01-28T14:05:31.762Z,62.63
2023-01-28T14:08:56.603Z,63.83
2023-01-28T14:12:02.645Z,62.81
2023-01-28T14:15:05.218Z,62.62
2023-01-28T14:17:44.000Z,62.31
2023-01-28T14:20:19.841Z,62.10
2023-01-28T14:22:47.925Z,63.28
2023-01-28T14:25:22.075Z,63.03
2023-01-28T14:27:53.284Z,63.28
2023-01-28T14:30:25.433Z,62.75
2023-01-28T14:32:55.483Z,61.51
2023-01-28T14:35:39.876Z,62.31
2023-01-28T14:38:13.622Z,62.47
2023-01-28T14:40:42.079Z,61.89
2023-01-28T14:43:17.383Z,61.64
2023-01-28T14:46:04.955Z,62.08
2023-01-28T14:48:44.281Z,62.52
2023-01-28T14:51:24.272Z,63.50
2023-01-28T14:54:11.811Z,64.33
2023-01-28T14:57:07.400Z,65.74
2023-01-28T14:59:41.731Z,65.67
2023-01-28T15:02:19.930Z,65.91
2023-01-28T15:04:49.565Z,66.39
2023-01-28T15:07:20.083Z,67.01
2023-01-28T15:09:48.660Z,66.73
2023-01-28T15:12:18.236Z,66.84
2023-01-28T15:14:48.086Z,66.18
2023-01-28T15:17:25.585Z,66.24
2023-01-28T15:19:56.981Z,66.94
2023-01-28T15:22:28.738Z,66.21
2023-01-28T15:24:56.990Z,65.71
2023-01-28T15:27:29.424Z,67.13
2023-01-28T15:29:59.696Z,66.63
2023-01-28T15:32:29.671Z,67.10
2023-01-28T15:35:00.888Z,67.56
2023-01-28T15:37:28.878Z,67.27
2023-01-28T15:40:05.923Z,67.90
2023-01-28T15:42:35.310Z,66.93
2023-01-28T15:45:04.446Z,68.72
2023-01-28T15:47:35.302Z,69.32
2023-01-28T15:50:08.236Z,68.92
2023-01-28T15:52:38.913Z,69.68
2023-01-28T15:55:08.307Z,68.86
2023-01-28T15:57:36.713Z,71.10
2023-01-28T16:00:13.124Z,71.32
2023-01-28T16:02:45.929Z,72.80
2023-01-28T16:05:29.856Z,73.87
2023-01-28T16:07:59.342Z,73.51
2023-01-28T16:10:29.476Z,74.70
2023-01-28T16:13:05.648Z,74.92
2023-01-28T16:15:34.938Z,74.97
2023-01-28T16:18:03.941Z,76.33
2023-01-28T16:20:33.979Z,76.08
2023-01-28T16:23:04.053Z,75.98
2023-01-28T16:25:33.468Z,75.27
2023-01-28T16:28:03.007Z,76.95
2023-01-28T16:30:31.380Z,77.60
2023-01-28T16:33:00.237Z,77.99
2023-01-28T16:35:47.142Z,79.51
2023-01-28T16:38:19.776Z,79.41
2023-01-28T16:40:48.776Z,79.56
2023-01-28T16:43:20.529Z,80.41
2023-01-28T16:45:48.404Z,81.38
2023-01-28T16:48:16.282Z,81.55
2023-01-28T16:50:44.474Z,81.17
2023-01-28T16:53:21.250Z,82.26
2023-01-28T16:55:50.779Z,81.83
2023-01-28T16:58:22.665Z,82.07
2023-01-28T17:00:50.597Z,81.98
2023-01-28T17:03:18.894Z,81.84
2023-01-28T17:05:46.875Z,82.38
2023-01-28T17:08:14.664Z,81.94
2023-01-28T17:10:43.904Z,81.79
2023-01-28T17:13:12.247Z,82.41
2023-01-28T17:15:40.021Z,82.41
2023-01-28T17:18:13.364Z,82.56
2023-01-28T17:20:41.360Z,83.88
2023-01-28T17:23:09.720Z,83.02
2023-01-28T17:25:39.641Z,84.02
2023-01-28T17:28:10.220Z,85.03
2023-01-28T17:30:41.432Z,84.96
2023-01-28T17:33:10.233Z,85.13
2023-01-28T17:35:38.303Z,85.61
2023-01-28T17:38:06.493Z,84.82
2023-01-28T17:40:34.379Z,84.31
2023-01-28T17:43:02.327Z,84.15
2023-01-28T17:45:32.873Z,84.55
2023-01-28T17:48:00.908Z,84.52
2023-01-28T17:50:28.848Z,84.43
2023-01-28T17:52:57.190Z,84.64
2023-01-28T17:55:25.286Z,84.88
2023-01-28T17:57:53.176Z,85.58
2023-01-28T18:00:22.481Z,85.09
2023-01-28T18:02:52.839Z,85.68
2023-01-28T18:05:21.425Z,85.67
2023-01-28T18:07:50.446Z,86.84
2023-01-28T18:10:19.228Z,87.57
2023-01-28T18:12:47.308Z,87.19
2023-01-28T18:15:16.220Z,87.82
2023-01-28T18:17:44.364Z,88.66
2023-01-28T18:20:14.208Z,88.36
2023-01-28T18:22:42.122Z,92.99
2023-01-28T18:25:17.154Z,89.02
2023-01-28T18:27:45.446Z,88.36
2023-01-28T18:30:16.339Z,88.65
2023-01-28T18:32:44.570Z,89.01
2023-01-28T18:35:14.784Z,89.19
2023-01-28T18:37:42.997Z,88.92
2023-01-28T18:40:12.049Z,89.27
2023-01-28T18:42:39.971Z,89.70
2023-01-28T18:45:08.651Z,89.82
2023-01-28T18:47:36.479Z,90.91
2023-01-28T18:50:05.060Z,91.30
2023-01-28T18:52:34.296Z,91.32
2023-01-28T18:55:02.066Z,91.84
2023-01-28T18:57:29.947Z,91.73
2023-01-28T18:59:57.985Z,91.96
2023-01-28T19:02:25.879Z,91.84
2023-01-28T19:04:53.751Z,92.21
2023-01-28T19:07:21.684Z,92.55
2023-01-28T19:09:50.851Z,92.65
2023-01-28T19:12:20.956Z,92.51
2023-01-28T19:14:50.000Z,92.75
2023-01-28T19:17:17.915Z,92.97
2023-01-28T19:19:45.782Z,93.06
2023-01-28T19:22:13.559Z,92.78
2023-01-28T19:24:41.350Z,93.10
2023-01-28T19:27:10.818Z,92.81
2023-01-28T19:29:38.636Z,92.79
2023-01-28T19:32:06.794Z,94.52
2023-01-28T19:34:34.701Z,95.13
2023-01-28T19:37:02.501Z,95.13
2023-01-28T19:39:31.582Z,95.09
2023-01-28T19:42:02.082Z,94.81
2023-01-28T19:44:32.731Z,95.02
2023-01-28T19:47:01.159Z,94.75
2023-01-28T19:49:28.977Z,95.00
2023-01-28T19:51:57.147Z,95.55
2023-01-28T19:54:25.119Z,95.59
2023-01-28T19:56:53.081Z,95.14
2023-01-28T19:59:20.948Z,95.62
2023-01-28T20:01:50.150Z,95.72
2023-01-28T20:04:17.998Z,95.66
2023-01-28T20:06:45.826Z,95.48
2023-01-28T20:09:16.687Z,95.62
2023-01-28T20:11:44.565Z,96.06
2023-01-28T20:14:16.135Z,96.15
2023-01-28T20:16:43.936Z,96.26
2023-01-28T20:19:17.555Z,95.79
2023-01-28T20:21:46.996Z,95.71
2023-01-28T20:24:16.101Z,95.26
2023-01-28T20:26:45.039Z,95.39
2023-01-28T20:29:15.010Z,95.72
2023-01-28T20:31:43.531Z,95.54
2023-01-28T20:34:16.722Z,95.71
2023-01-28T20:36:45.150Z,96.36
2023-01-28T20:39:13.285Z,96.32
2023-01-28T20:41:41.141Z,96.47
2023-01-28T20:44:08.977Z,96.72
2023-01-28T20:46:38.807Z,96.78
2023-01-28T20:49:07.115Z,97.30
2023-01-28T20:51:38.189Z,97.54
2023-01-28T20:54:07.002Z,97.09
2023-01-28T20:56:35.155Z,97.17
2023-01-28T20:59:04.836Z,97.02
2023-01-28T21:01:35.274Z,97.21
2023-01-28T21:04:05.445Z,97.64
2023-01-28T21:06:33.969Z,97.72
2023-01-28T21:09:04.185Z,97.52
2023-01-28T21:11:32.714Z,97.72
2023-01-28T21:14:00.696Z,97.79
2023-01-28T21:16:29.757Z,97.75
2023-01-28T21:18:57.711Z,97.74
2023-01-28T21:21:26.989Z,97.49
2023-01-28T21:23:57.638Z,98.44
2023-01-28T21:26:27.600Z,99.04
2023-01-28T21:28:56.114Z,98.80
2023-01-28T21:31:26.259Z,99.07
2023-01-28T21:33:55.958Z,99.48
2023-01-28T21:36:24.924Z,99.40
2023-01-28T21:38:53.843Z,99.94
2023-01-28T21:41:21.787Z,99.69
2023-01-28T21:43:53.422Z,98.56
2023-01-28T21:46:21.519Z,98.36
2023-01-28T21:48:49.443Z,98.53
2023-01-28T21:51:34.884Z,98.19
2023-01-28T21:54:02.850Z,99.83
2023-01-28T21:56:30.773Z,100.00
2023-01-28T21:59:17.554Z,100.00
2023-01-28T22:01:45.809Z,99.81
2023-01-28T22:04:14.359Z,99.44
2023-01-28T22:06:42.348Z,98.54
2023-01-28T22:09:13.523Z,98.40
2023-01-28T22:11:41.526Z,98.91
2023-01-28T22:14:10.982Z,98.60
2023-01-28T22:16:38.892Z,99.06
2023-01-28T22:19:07.095Z,99.39
2023-01-28T22:21:40.811Z,99.91
2023-01-28T22:24:11.057Z,100.00
2023-01-28T22:26:39.295Z,100.00
2023-01-28T22:29:07.496Z,100.00
2023-01-28T22:31:36.998Z,100.00
2023-01-28T22:34:05.780Z,100.00
2023-01-28T22:36:34.437Z,100.00
2023-01-28T22:39:03.333Z,100.00
2023-01-28T22:41:31.947Z,100.00
2023-01-28T22:44:01.607Z,99.67
2023-01-28T22:46:29.785Z,99.81
2023-01-28T22:48:59.363Z,100.00
2023-01-28T22:51:30.363Z,99.97
2023-01-28T22:53:58.457Z,99.79
2023-01-28T22:56:27.883Z,100.00
2023-01-28T22:58:56.891Z,100.00
2023-01-28T23:01:25.298Z,100.00
2023-01-28T23:03:55.729Z,100.00
2023-01-28T23:06:27.010Z,99.87
2023-01-28T23:08:56.178Z,100.00
2023-01-28T23:11:27.741Z,100.00
2023-01-28T23:14:15.464Z,100.00
2023-01-28T23:17:01.081Z,100.00
2023-01-28T23:19:46.869Z,100.00
2023-01-28T23:22:35.817Z,100.00
2023-01-28T23:25:03.788Z,100.00
2023-01-28T23:27:31.738Z,100.00
2023-01-28T23:29:59.535Z,100.00
2023-01-28T23:32:28.172Z,100.00
2023-01-28T23:34:56.036Z,100.00
2023-01-28T23:37:25.526Z,100.00
2023-01-28T23:39:53.355Z,100.00
2023-01-28T23:42:23.512Z,100.00
2023-01-28T23:44:51.409Z,100.00
2023-01-28T23:47:19.675Z,100.00
2023-01-28T23:49:47.513Z,100.00
2023-01-28T23:52:15.369Z,100.00
2023-01-28T23:54:44.578Z,100.00
2023-01-28T23:57:12.411Z,100.00
2023-01-28T23:59:40.254Z,100.00
